createdAt,value
2023-04-08T00:03:40.992Z,69.70
2023-04-08T00:08:44.622Z,70.10
2023-04-08T00:13:48.282Z,69.80
2023-04-08T00:18:53.397Z,69.90
2023-04-08T00:23:57.204Z,70.00
2023-04-08T00:29:00.681Z,69.70
2023-04-08T00:34:05.502Z,69.60
2023-04-08T00:39:08.938Z,69.80
2023-04-08T00:44:12.427Z,69.80
2023-04-08T00:49:17.754Z,70.00
2023-04-08T00:54:21.278Z,70.00
2023-04-08T00:59:24.962Z,70.00
2023-04-08T01:04:37.388Z,69.90
2023-04-08T01:09:41.460Z,70.00
2023-04-08T01:14:46.458Z,69.80
2023-04-08T01:19:51.754Z,70.00
2023-04-08T01:24:59.492Z,70.00
2023-04-08T01:30:05.322Z,70.40
2023-04-08T01:35:09.997Z,70.20
2023-04-08T01:40:13.912Z,70.20
2023-04-08T01:45:19.214Z,70.40
2023-04-08T01:50:22.914Z,70.50
2023-04-08T01:55:26.796Z,70.40
2023-04-08T02:00:32.719Z,70.20
2023-04-08T02:05:36.182Z,70.10
2023-04-08T02:10:39.566Z,70.00
2023-04-08T02:15:49.066Z,70.20
2023-04-08T02:20:58.071Z,69.90
2023-04-08T02:26:02.395Z,70.10
2023-04-08T02:31:07.708Z,69.90
2023-04-08T02:36:13.006Z,70.10
2023-04-08T02:41:16.759Z,70.40
2023-04-08T02:46:21.713Z,70.00
2023-04-08T02:51:25.204Z,70.40
2023-04-08T02:56:28.623Z,70.20
2023-04-08T03:01:33.556Z,70.30
2023-04-08T03:06:37.049Z,70.30
2023-04-08T03:11:40.406Z,70.10
2023-04-08T03:16:45.164Z,69.90
2023-04-08T03:21:48.534Z,70.40
2023-04-08T03:26:51.890Z,70.10
2023-04-08T03:31:56.818Z,70.10
2023-04-08T03:37:00.210Z,70.30
2023-04-08T03:42:03.683Z,70.10
2023-04-08T03:47:08.466Z,70.10
2023-04-08T03:52:11.862Z,70.40
2023-04-08T03:57:15.254Z,70.10
2023-04-08T04:02:20.182Z,70.10
2023-04-08T04:07:23.639Z,70.30
2023-04-08T04:12:27.048Z,70.20
2023-04-08T04:17:31.929Z,70.20
2023-04-08T04:22:35.320Z,70.00
2023-04-08T04:27:38.713Z,70.20
2023-04-08T04:32:43.957Z,70.30
2023-04-08T04:37:47.572Z,70.50
2023-04-08T04:42:50.930Z,70.60
2023-04-08T04:47:55.705Z,71.40
2023-04-08T04:52:59.110Z,71.50
2023-04-08T04:58:02.467Z,71.50
2023-04-08T05:03:07.545Z,71.80
2023-04-08T05:08:11.448Z,71.70
2023-04-08T05:13:14.784Z,71.90
2023-04-08T05:18:19.857Z,72.20
2023-04-08T05:23:23.191Z,71.90
2023-04-08T05:28:26.556Z,71.80
2023-04-08T05:33:31.462Z,72.30
2023-04-08T05:38:34.858Z,72.20
2023-04-08T05:43:38.466Z,72.10
2023-04-08T05:48:43.253Z,72.00
2023-04-08T05:53:47.195Z,72.40
2023-04-08T05:58:50.813Z,71.70
2023-04-08T06:03:57.082Z,72.20
2023-04-08T06:09:00.764Z,72.40
2023-04-08T06:14:04.132Z,72.10
2023-04-08T06:19:08.891Z,71.70
2023-04-08T06:24:12.249Z,72.00
2023-04-08T06:29:15.638Z,71.90
2023-04-08T06:34:20.405Z,72.10
2023-04-08T06:39:23.887Z,72.00
2023-04-08T06:44:27.254Z,72.10
2023-04-08T06:49:32.104Z,72.00
2023-04-08T06:54:35.676Z,71.00
2023-04-08T06:59:39.109Z,71.10
2023-04-08T07:04:46.671Z,70.90
2023-04-08T07:09:50.468Z,70.50
2023-04-08T07:14:54.348Z,69.70
2023-04-08T07:19:59.559Z,70.80
2023-04-08T07:25:03.157Z,71.50
2023-04-08T07:30:07.776Z,72.10
2023-04-08T07:35:12.764Z,72.70
2023-04-08T07:40:16.444Z,72.90
2023-04-08T07:45:19.855Z,73.10
2023-04-08T07:50:24.805Z,73.20
2023-04-08T07:55:28.272Z,73.80
2023-04-08T08:00:31.831Z,74.20
2023-04-08T08:05:37.256Z,74.60
2023-04-08T08:10:41.060Z,75.00
2023-04-08T08:15:44.562Z,75.40
2023-04-08T08:20:49.470Z,72.60
2023-04-08T08:26:01.294Z,70.80
2023-04-08T08:31:06.230Z,71.20
2023-04-08T08:36:11.291Z,72.30
2023-04-08T08:41:15.563Z,71.60
2023-04-08T08:46:19.972Z,72.10
2023-04-08T08:51:25.096Z,72.30
2023-04-08T08:56:28.811Z,72.00
2023-04-08T09:01:33.764Z,72.40
2023-04-08T09:06:39.204Z,72.20
2023-04-08T09:11:43.730Z,70.80
2023-04-08T09:16:47.375Z,71.20
2023-04-08T09:22:08.098Z,69.00
2023-04-08T09:27:11.564Z,70.30
2023-04-08T09:32:15.038Z,70.70
2023-04-08T09:37:19.855Z,70.80
2023-04-08T09:42:23.918Z,70.70
2023-04-08T09:47:30.450Z,70.40
2023-04-08T09:52:40.087Z,70.60
2023-04-08T09:57:46.049Z,70.70
2023-04-08T10:02:56.673Z,70.90
2023-04-08T10:08:01.780Z,71.30
2023-04-08T10:13:05.445Z,71.30
2023-04-08T10:18:34.664Z,70.90
2023-04-08T10:24:07.333Z,70.70
2023-04-08T10:29:44.077Z,70.90
2023-04-08T10:34:53.860Z,71.50
2023-04-08T10:39:59.030Z,71.10
2023-04-08T10:45:03.651Z,71.30
2023-04-08T10:50:14.535Z,71.50
2023-04-08T10:55:24.268Z,71.60
2023-04-08T11:00:35.305Z,71.60
2023-04-08T11:05:39.305Z,71.20
2023-04-08T11:10:45.211Z,70.20
2023-04-08T11:15:48.802Z,70.40
2023-04-08T11:20:52.494Z,70.40
2023-04-08T11:25:57.715Z,70.70
2023-04-08T11:31:01.397Z,70.70
2023-04-08T11:36:05.830Z,71.30
2023-04-08T11:41:11.808Z,71.00
2023-04-08T11:46:15.545Z,71.10
2023-04-08T11:51:19.223Z,71.30
2023-04-08T11:56:24.952Z,71.80
2023-04-08T12:01:28.639Z,71.70
2023-04-08T12:06:32.417Z,71.90
2023-04-08T12:11:37.341Z,71.50
2023-04-08T12:16:40.819Z,72.20
2023-04-08T12:21:44.313Z,73.10
2023-04-08T12:26:49.286Z,72.30
2023-04-08T12:31:53.549Z,72.00
2023-04-08T12:36:57.080Z,72.00
2023-04-08T12:42:01.961Z,72.30
2023-04-08T12:47:05.703Z,72.10
2023-04-08T12:52:09.251Z,72.00
2023-04-08T12:57:14.258Z,71.20
2023-04-08T13:02:17.787Z,71.30
2023-04-08T13:07:21.283Z,71.50
2023-04-08T13:12:26.152Z,72.20
2023-04-08T13:17:29.606Z,71.30
2023-04-08T13:22:33.883Z,72.20
2023-04-08T13:27:38.730Z,72.70
2023-04-08T13:32:42.370Z,73.90
2023-04-08T13:37:45.904Z,73.90
2023-04-08T13:42:50.762Z,74.80
2023-04-08T13:47:54.324Z,75.10
2023-04-08T13:52:58.632Z,74.70
2023-04-08T13:58:08.807Z,74.50
2023-04-08T14:03:17.672Z,74.70
2023-04-08T14:08:25.841Z,74.40
2023-04-08T14:13:30.858Z,74.40
2023-04-08T14:18:34.355Z,74.10
2023-04-08T14:23:38.118Z,74.10
2023-04-08T14:28:44.278Z,74.30
2023-04-08T14:33:47.737Z,74.20
2023-04-08T14:38:51.558Z,74.20
2023-04-08T14:43:56.786Z,73.40
2023-04-08T14:49:01.107Z,73.30
2023-04-08T14:54:04.687Z,72.90
2023-04-08T14:59:09.525Z,73.30
2023-04-08T15:04:13.037Z,73.00
2023-04-08T15:09:16.757Z,73.40
2023-04-08T15:14:21.666Z,73.40
2023-04-08T15:19:25.203Z,73.40
2023-04-08T15:24:28.711Z,73.40
2023-04-08T15:29:33.624Z,73.50
2023-04-08T15:34:37.246Z,73.10
2023-04-08T15:39:41.773Z,73.20
2023-04-08T15:44:46.680Z,73.10
2023-04-08T15:49:50.132Z,73.00
2023-04-08T15:54:53.684Z,72.70
2023-04-08T15:59:58.542Z,72.90
2023-04-08T16:05:02.024Z,73.00
2023-04-08T16:10:06.072Z,73.10
2023-04-08T16:15:12.043Z,73.90
2023-04-08T16:20:15.708Z,74.10
2023-04-08T16:25:19.311Z,74.70
2023-04-08T16:30:24.207Z,74.40
2023-04-08T16:35:27.737Z,74.60
2023-04-08T16:40:33.275Z,74.80
2023-04-08T16:45:39.232Z,74.60
2023-04-08T16:50:42.871Z,74.70
2023-04-08T16:55:46.401Z,74.80
2023-04-08T17:00:51.346Z,74.70
2023-04-08T17:05:54.791Z,74.70
2023-04-08T17:11:06.828Z,74.90
2023-04-08T17:16:15.049Z,75.00
2023-04-08T17:21:18.534Z,74.70
2023-04-08T17:26:22.415Z,74.90
2023-04-08T17:31:27.892Z,74.10
2023-04-08T17:36:31.598Z,73.60
2023-04-08T17:41:40.307Z,73.20
2023-04-08T17:46:45.968Z,72.60
2023-04-08T17:51:49.467Z,73.10
2023-04-08T17:56:53.045Z,72.60
2023-04-08T18:01:58.008Z,72.20
2023-04-08T18:07:04.086Z,72.10
2023-04-08T18:12:07.693Z,72.20
2023-04-08T18:17:12.594Z,71.90
2023-04-08T18:22:16.540Z,71.80
2023-04-08T18:27:20.081Z,72.10
2023-04-08T18:32:25.014Z,72.40
2023-04-08T18:37:28.589Z,72.60
2023-04-08T18:42:31.976Z,73.00
2023-04-08T18:47:36.987Z,73.00
2023-04-08T18:52:40.391Z,73.20
2023-04-08T18:57:44.772Z,73.10
2023-04-08T19:02:49.769Z,73.30
2023-04-08T19:07:53.421Z,73.10
2023-04-08T19:12:56.907Z,73.40
2023-04-08T19:18:01.855Z,73.50
2023-04-08T19:23:06.052Z,73.70
2023-04-08T19:28:09.790Z,73.10
2023-04-08T19:33:15.851Z,73.50
2023-04-08T19:38:19.295Z,72.90
2023-04-08T19:43:22.955Z,72.90
2023-04-08T19:48:27.917Z,73.10
2023-04-08T19:53:31.412Z,73.60
2023-04-08T19:58:34.805Z,73.30
2023-04-08T20:03:39.662Z,73.70
2023-04-08T20:08:43.089Z,73.60
2023-04-08T20:13:47.273Z,73.60
2023-04-08T20:18:52.444Z,72.70
2023-04-08T20:23:56.759Z,73.70
2023-04-08T20:29:00.275Z,73.40
2023-04-08T20:34:05.117Z,72.90
2023-04-08T20:39:11.648Z,73.60
2023-04-08T20:44:15.097Z,73.60
2023-04-08T20:49:20.112Z,73.90
2023-04-08T20:54:24.634Z,74.20
2023-04-08T20:59:28.439Z,74.80
2023-04-08T21:04:33.568Z,74.50
2023-04-08T21:09:37.111Z,74.60
2023-04-08T21:14:40.591Z,74.80
2023-04-08T21:19:46.896Z,75.10
2023-04-08T21:24:50.427Z,75.10
2023-04-08T21:29:53.911Z,75.30
2023-04-08T21:34:58.878Z,75.30
2023-04-08T21:40:02.296Z,75.40
2023-04-08T21:45:06.606Z,75.50
2023-04-08T21:50:11.771Z,75.60
2023-04-08T21:55:15.245Z,75.70
2023-04-08T22:00:18.716Z,75.90
2023-04-08T22:05:23.737Z,72.60
2023-04-08T22:10:27.942Z,75.30
2023-04-08T22:15:31.446Z,76.00
2023-04-08T22:20:36.756Z,75.70
2023-04-08T22:25:40.295Z,75.80
2023-04-08T22:30:44.113Z,76.10
2023-04-08T22:35:49.285Z,76.30
2023-04-08T22:40:52.818Z,76.20
2023-04-08T22:45:56.318Z,76.10
2023-04-08T22:51:01.231Z,76.20
2023-04-08T22:56:04.879Z,76.20
2023-04-08T23:01:12.642Z,76.30
2023-04-08T23:06:17.693Z,76.30
2023-04-08T23:11:21.499Z,76.20
2023-04-08T23:16:25.263Z,76.20
2023-04-08T23:21:31.265Z,76.40
2023-04-08T23:26:34.763Z,76.20
2023-04-08T23:31:38.417Z,76.30
2023-04-08T23:36:43.372Z,76.30
2023-04-08T23:41:46.894Z,76.30
2023-04-08T23:46:50.363Z,76.20
2023-04-08T23:51:55.234Z,76.30
2023-04-08T23:56:58.649Z,76.40
